sensor_id;sensor_type;location;lat;lon;timestamp;P1;durP1;ratioP1;P2;durP2;ratioP2
8060;SDS011;4073;42.626;25.386;2023-04-24T00:01:53;12.77;;;7.37;;
8060;SDS011;4073;42.626;25.386;2023-04-24T00:04:20;12.10;;;8.30;;
8060;SDS011;4073;42.626;25.386;2023-04-24T00:06:45;17.27;;;9.77;;
8060;SDS011;4073;42.626;25.386;2023-04-24T00:09:14;13.43;;;9.00;;
8060;SDS011;4073;42.626;25.386;2023-04-24T00:11:40;10.07;;;7.90;;
8060;SDS011;4073;42.626;25.386;2023-04-24T00:14:06;15.60;;;8.20;;
8060;SDS011;4073;42.626;25.386;2023-04-24T00:16:31;12.60;;;8.93;;
8060;SDS011;4073;42.626;25.386;2023-04-24T00:18:57;10.90;;;8.60;;
8060;SDS011;4073;42.626;25.386;2023-04-24T00:21:24;12.13;;;7.17;;
8060;SDS011;4073;42.626;25.386;2023-04-24T00:23:50;10.07;;;6.50;;
8060;SDS011;4073;42.626;25.386;2023-04-24T00:26:16;7.97;;;5.57;;
8060;SDS011;4073;42.626;25.386;2023-04-24T00:28:41;7.43;;;6.70;;
8060;SDS011;4073;42.626;25.386;2023-04-24T00:31:07;6.87;;;5.90;;
8060;SDS011;4073;42.626;25.386;2023-04-24T00:33:32;6.17;;;5.57;;
8060;SDS011;4073;42.626;25.386;2023-04-24T00:35:58;7.17;;;6.17;;
8060;SDS011;4073;42.626;25.386;2023-04-24T00:38:23;13.60;;;7.40;;
8060;SDS011;4073;42.626;25.386;2023-04-24T00:40:48;12.00;;;8.40;;
8060;SDS011;4073;42.626;25.386;2023-04-24T00:43:15;8.33;;;6.43;;
8060;SDS011;4073;42.626;25.386;2023-04-24T00:45:41;7.10;;;6.23;;
8060;SDS011;4073;42.626;25.386;2023-04-24T00:48:07;8.87;;;7.30;;
8060;SDS011;4073;42.626;25.386;2023-04-24T00:50:33;8.10;;;6.90;;
8060;SDS011;4073;42.626;25.386;2023-04-24T00:53:00;8.97;;;8.07;;
8060;SDS011;4073;42.626;25.386;2023-04-24T00:55:26;12.07;;;6.80;;
8060;SDS011;4073;42.626;25.386;2023-04-24T00:57:51;9.07;;;6.97;;
8060;SDS011;4073;42.626;25.386;2023-04-24T01:00:17;9.27;;;6.70;;
8060;SDS011;4073;42.626;25.386;2023-04-24T01:02:43;8.67;;;6.50;;
8060;SDS011;4073;42.626;25.386;2023-04-24T01:05:11;8.37;;;6.43;;
8060;SDS011;4073;42.626;25.386;2023-04-24T01:07:38;9.80;;;7.00;;
8060;SDS011;4073;42.626;25.386;2023-04-24T01:10:06;10.07;;;7.10;;
8060;SDS011;4073;42.626;25.386;2023-04-24T01:12:33;9.40;;;6.97;;
8060;SDS011;4073;42.626;25.386;2023-04-24T01:14:58;9.50;;;6.33;;
8060;SDS011;4073;42.626;25.386;2023-04-24T01:17:24;12.13;;;7.63;;
8060;SDS011;4073;42.626;25.386;2023-04-24T01:19:50;7.77;;;7.03;;
8060;SDS011;4073;42.626;25.386;2023-04-24T01:22:18;9.30;;;7.20;;
8060;SDS011;4073;42.626;25.386;2023-04-24T01:24:45;10.53;;;7.73;;
8060;SDS011;4073;42.626;25.386;2023-04-24T01:27:11;8.00;;;7.20;;
8060;SDS011;4073;42.626;25.386;2023-04-24T01:29:38;10.77;;;7.17;;
8060;SDS011;4073;42.626;25.386;2023-04-24T01:32:04;8.60;;;6.73;;
8060;SDS011;4073;42.626;25.386;2023-04-24T01:34:30;7.77;;;6.57;;
8060;SDS011;4073;42.626;25.386;2023-04-24T01:36:55;9.20;;;7.47;;
8060;SDS011;4073;42.626;25.386;2023-04-24T01:39:21;8.43;;;7.37;;
8060;SDS011;4073;42.626;25.386;2023-04-24T01:41:48;8.83;;;7.20;;
8060;SDS011;4073;42.626;25.386;2023-04-24T01:44:15;8.67;;;7.80;;
8060;SDS011;4073;42.626;25.386;2023-04-24T01:46:41;8.13;;;7.23;;
8060;SDS011;4073;42.626;25.386;2023-04-24T01:49:06;7.93;;;7.07;;
8060;SDS011;4073;42.626;25.386;2023-04-24T01:51:32;8.87;;;7.47;;
8060;SDS011;4073;42.626;25.386;2023-04-24T01:53:57;11.47;;;8.10;;
8060;SDS011;4073;42.626;25.386;2023-04-24T01:56:23;8.67;;;7.77;;
8060;SDS011;4073;42.626;25.386;2023-04-24T01:58:50;10.63;;;7.97;;
8060;SDS011;4073;42.626;25.386;2023-04-24T02:01:19;12.93;;;8.07;;
8060;SDS011;4073;42.626;25.386;2023-04-24T02:03:45;9.93;;;7.33;;
8060;SDS011;4073;42.626;25.386;2023-04-24T02:06:10;9.53;;;8.10;;
8060;SDS011;4073;42.626;25.386;2023-04-24T02:08:36;8.97;;;7.77;;
8060;SDS011;4073;42.626;25.386;2023-04-24T02:11:01;10.80;;;8.20;;
8060;SDS011;4073;42.626;25.386;2023-04-24T02:13:27;8.43;;;7.53;;
8060;SDS011;4073;42.626;25.386;2023-04-24T02:15:53;8.70;;;7.50;;
8060;SDS011;4073;42.626;25.386;2023-04-24T02:18:18;8.97;;;7.33;;
8060;SDS011;4073;42.626;25.386;2023-04-24T02:20:44;9.50;;;7.63;;
8060;SDS011;4073;42.626;25.386;2023-04-24T02:23:10;13.60;;;9.33;;
8060;SDS011;4073;42.626;25.386;2023-04-24T02:25:36;10.80;;;8.67;;
8060;SDS011;4073;42.626;25.386;2023-04-24T02:28:01;11.37;;;7.97;;
8060;SDS011;4073;42.626;25.386;2023-04-24T02:30:27;10.47;;;7.60;;
8060;SDS011;4073;42.626;25.386;2023-04-24T02:32:53;8.27;;;7.47;;
8060;SDS011;4073;42.626;25.386;2023-04-24T02:35:19;9.00;;;7.40;;
8060;SDS011;4073;42.626;25.386;2023-04-24T02:37:45;7.43;;;6.80;;
8060;SDS011;4073;42.626;25.386;2023-04-24T02:40:10;8.73;;;7.70;;
8060;SDS011;4073;42.626;25.386;2023-04-24T02:42:36;8.27;;;7.37;;
8060;SDS011;4073;42.626;25.386;2023-04-24T02:45:01;10.03;;;7.20;;
8060;SDS011;4073;42.626;25.386;2023-04-24T02:47:27;9.43;;;6.80;;
8060;SDS011;4073;42.626;25.386;2023-04-24T02:49:52;9.47;;;7.83;;
8060;SDS011;4073;42.626;25.386;2023-04-24T02:52:18;7.13;;;6.17;;
8060;SDS011;4073;42.626;25.386;2023-04-24T02:54:43;12.27;;;7.27;;
8060;SDS011;4073;42.626;25.386;2023-04-24T02:57:09;9.83;;;7.53;;
8060;SDS011;4073;42.626;25.386;2023-04-24T02:59:34;8.27;;;6.70;;
8060;SDS011;4073;42.626;25.386;2023-04-24T03:02:00;10.40;;;7.67;;
8060;SDS011;4073;42.626;25.386;2023-04-24T03:04:25;9.37;;;6.63;;
8060;SDS011;4073;42.626;25.386;2023-04-24T03:06:52;8.67;;;7.77;;
8060;SDS011;4073;42.626;25.386;2023-04-24T03:09:19;12.70;;;10.10;;
8060;SDS011;4073;42.626;25.386;2023-04-24T03:11:45;11.33;;;9.80;;
8060;SDS011;4073;42.626;25.386;2023-04-24T03:14:11;10.13;;;8.83;;
8060;SDS011;4073;42.626;25.386;2023-04-24T03:16:36;12.03;;;9.17;;
8060;SDS011;4073;42.626;25.386;2023-04-24T03:19:02;9.40;;;8.37;;
8060;SDS011;4073;42.626;25.386;2023-04-24T03:21:27;10.70;;;7.70;;
8060;SDS011;4073;42.626;25.386;2023-04-24T03:23:53;10.80;;;7.83;;
8060;SDS011;4073;42.626;25.386;2023-04-24T03:26:18;8.93;;;8.03;;
8060;SDS011;4073;42.626;25.386;2023-04-24T03:28:44;8.77;;;7.87;;
8060;SDS011;4073;42.626;25.386;2023-04-24T03:31:10;10.67;;;9.60;;
8060;SDS011;4073;42.626;25.386;2023-04-24T03:33:35;9.77;;;8.03;;
8060;SDS011;4073;42.626;25.386;2023-04-24T03:36:01;10.10;;;8.47;;
8060;SDS011;4073;42.626;25.386;2023-04-24T03:38:26;9.20;;;7.10;;
8060;SDS011;4073;42.626;25.386;2023-04-24T03:40:52;9.17;;;7.33;;
8060;SDS011;4073;42.626;25.386;2023-04-24T03:43:17;9.40;;;7.53;;
8060;SDS011;4073;42.626;25.386;2023-04-24T03:45:43;9.13;;;7.13;;
8060;SDS011;4073;42.626;25.386;2023-04-24T03:48:08;8.57;;;6.60;;
8060;SDS011;4073;42.626;25.386;2023-04-24T03:50:33;11.77;;;7.40;;
8060;SDS011;4073;42.626;25.386;2023-04-24T03:52:59;13.07;;;8.90;;
8060;SDS011;4073;42.626;25.386;2023-04-24T03:55:24;10.13;;;8.57;;
8060;SDS011;4073;42.626;25.386;2023-04-24T03:57:50;11.20;;;7.40;;
8060;SDS011;4073;42.626;25.386;2023-04-24T04:00:15;10.57;;;6.70;;
8060;SDS011;4073;42.626;25.386;2023-04-24T04:02:41;7.17;;;6.47;;
8060;SDS011;4073;42.626;25.386;2023-04-24T04:05:06;8.07;;;6.57;;
8060;SDS011;4073;42.626;25.386;2023-04-24T04:07:33;13.10;;;7.30;;
8060;SDS011;4073;42.626;25.386;2023-04-24T04:09:58;9.10;;;8.03;;
8060;SDS011;4073;42.626;25.386;2023-04-24T04:12:24;8.47;;;7.67;;
8060;SDS011;4073;42.626;25.386;2023-04-24T04:14:49;10.13;;;7.90;;
8060;SDS011;4073;42.626;25.386;2023-04-24T04:17:15;11.80;;;7.93;;
8060;SDS011;4073;42.626;25.386;2023-04-24T04:19:40;9.07;;;7.47;;
8060;SDS011;4073;42.626;25.386;2023-04-24T04:22:07;8.57;;;7.73;;
8060;SDS011;4073;42.626;25.386;2023-04-24T04:24:33;13.00;;;9.40;;
8060;SDS011;4073;42.626;25.386;2023-04-24T04:27:02;14.43;;;10.60;;
8060;SDS011;4073;42.626;25.386;2023-04-24T04:29:30;13.07;;;9.77;;
8060;SDS011;4073;42.626;25.386;2023-04-24T04:31:56;14.10;;;8.53;;
8060;SDS011;4073;42.626;25.386;2023-04-24T04:34:22;9.77;;;8.00;;
8060;SDS011;4073;42.626;25.386;2023-04-24T04:36:48;13.47;;;9.23;;
8060;SDS011;4073;42.626;25.386;2023-04-24T04:39:13;10.97;;;7.47;;
8060;SDS011;4073;42.626;25.386;2023-04-24T04:41:43;11.37;;;8.20;;
8060;SDS011;4073;42.626;25.386;2023-04-24T04:44:09;11.20;;;9.20;;
8060;SDS011;4073;42.626;25.386;2023-04-24T04:46:34;13.03;;;8.03;;
8060;SDS011;4073;42.626;25.386;2023-04-24T04:49:02;10.13;;;8.37;;
8060;SDS011;4073;42.626;25.386;2023-04-24T04:51:27;9.67;;;8.40;;
8060;SDS011;4073;42.626;25.386;2023-04-24T04:53:53;10.87;;;8.07;;
8060;SDS011;4073;42.626;25.386;2023-04-24T04:56:19;9.80;;;7.53;;
8060;SDS011;4073;42.626;25.386;2023-04-24T04:58:44;8.87;;;7.70;;
8060;SDS011;4073;42.626;25.386;2023-04-24T05:01:10;7.60;;;6.30;;
8060;SDS011;4073;42.626;25.386;2023-04-24T05:03:35;9.23;;;7.50;;
8060;SDS011;4073;42.626;25.386;2023-04-24T05:06:01;8.23;;;7.43;;
8060;SDS011;4073;42.626;25.386;2023-04-24T05:08:27;8.07;;;6.80;;
8060;SDS011;4073;42.626;25.386;2023-04-24T05:10:53;8.93;;;7.20;;
8060;SDS011;4073;42.626;25.386;2023-04-24T05:13:19;7.70;;;6.37;;
8060;SDS011;4073;42.626;25.386;2023-04-24T05:15:44;6.77;;;6.07;;
8060;SDS011;4073;42.626;25.386;2023-04-24T05:18:10;8.43;;;7.27;;
8060;SDS011;4073;42.626;25.386;2023-04-24T05:20:35;9.33;;;7.03;;
8060;SDS011;4073;42.626;25.386;2023-04-24T05:23:00;9.97;;;7.13;;
8060;SDS011;4073;42.626;25.386;2023-04-24T05:25:26;8.43;;;6.17;;
8060;SDS011;4073;42.626;25.386;2023-04-24T05:27:52;9.03;;;6.77;;
8060;SDS011;4073;42.626;25.386;2023-04-24T05:30:18;9.40;;;6.23;;
8060;SDS011;4073;42.626;25.386;2023-04-24T05:32:44;7.13;;;5.50;;
8060;SDS011;4073;42.626;25.386;2023-04-24T05:35:11;6.37;;;5.77;;
8060;SDS011;4073;42.626;25.386;2023-04-24T05:37:36;8.10;;;5.90;;
8060;SDS011;4073;42.626;25.386;2023-04-24T05:40:02;13.00;;;6.77;;
8060;SDS011;4073;42.626;25.386;2023-04-24T05:42:30;7.90;;;6.47;;
8060;SDS011;4073;42.626;25.386;2023-04-24T05:44:55;11.97;;;8.33;;
8060;SDS011;4073;42.626;25.386;2023-04-24T05:47:20;10.27;;;6.20;;
8060;SDS011;4073;42.626;25.386;2023-04-24T05:49:47;10.93;;;6.40;;
8060;SDS011;4073;42.626;25.386;2023-04-24T05:52:13;8.53;;;6.20;;
8060;SDS011;4073;42.626;25.386;2023-04-24T05:54:38;12.77;;;7.53;;
8060;SDS011;4073;42.626;25.386;2023-04-24T05:57:04;10.20;;;6.30;;
8060;SDS011;4073;42.626;25.386;2023-04-24T05:59:33;7.07;;;5.87;;
8060;SDS011;4073;42.626;25.386;2023-04-24T06:01:59;10.43;;;6.87;;
8060;SDS011;4073;42.626;25.386;2023-04-24T06:04:24;7.87;;;5.90;;
8060;SDS011;4073;42.626;25.386;2023-04-24T06:06:50;7.97;;;6.23;;
8060;SDS011;4073;42.626;25.386;2023-04-24T06:09:20;6.93;;;6.33;;
8060;SDS011;4073;42.626;25.386;2023-04-24T06:11:47;6.90;;;5.97;;
8060;SDS011;4073;42.626;25.386;2023-04-24T06:14:12;7.47;;;6.53;;
8060;SDS011;4073;42.626;25.386;2023-04-24T06:16:37;6.40;;;5.80;;
8060;SDS011;4073;42.626;25.386;2023-04-24T06:19:04;9.23;;;6.07;;
8060;SDS011;4073;42.626;25.386;2023-04-24T06:21:29;8.60;;;6.70;;
8060;SDS011;4073;42.626;25.386;2023-04-24T06:23:55;8.67;;;6.30;;
8060;SDS011;4073;42.626;25.386;2023-04-24T06:26:21;8.73;;;6.30;;
8060;SDS011;4073;42.626;25.386;2023-04-24T06:28:47;8.53;;;6.33;;
8060;SDS011;4073;42.626;25.386;2023-04-24T06:31:12;12.10;;;6.53;;
8060;SDS011;4073;42.626;25.386;2023-04-24T06:33:38;10.90;;;6.80;;
8060;SDS011;4073;42.626;25.386;2023-04-24T06:36:03;9.77;;;6.17;;
8060;SDS011;4073;42.626;25.386;2023-04-24T06:38:29;12.37;;;6.87;;
8060;SDS011;4073;42.626;25.386;2023-04-24T06:40:54;11.00;;;7.50;;
8060;SDS011;4073;42.626;25.386;2023-04-24T06:43:20;9.30;;;5.80;;
8060;SDS011;4073;42.626;25.386;2023-04-24T06:45:45;11.40;;;6.47;;
8060;SDS011;4073;42.626;25.386;2023-04-24T06:48:12;15.00;;;7.23;;
8060;SDS011;4073;42.626;25.386;2023-04-24T06:50:37;11.30;;;6.87;;
8060;SDS011;4073;42.626;25.386;2023-04-24T06:53:03;10.63;;;7.27;;
8060;SDS011;4073;42.626;25.386;2023-04-24T06:55:28;7.63;;;6.20;;
8060;SDS011;4073;42.626;25.386;2023-04-24T06:57:54;8.57;;;6.10;;
8060;SDS011;4073;42.626;25.386;2023-04-24T07:00:19;7.70;;;5.73;;
8060;SDS011;4073;42.626;25.386;2023-04-24T07:02:45;10.13;;;6.20;;
8060;SDS011;4073;42.626;25.386;2023-04-24T07:05:10;10.33;;;6.00;;
8060;SDS011;4073;42.626;25.386;2023-04-24T07:07:36;9.67;;;5.07;;
8060;SDS011;4073;42.626;25.386;2023-04-24T07:10:03;14.33;;;5.90;;
8060;SDS011;4073;42.626;25.386;2023-04-24T07:12:29;6.67;;;5.23;;
8060;SDS011;4073;42.626;25.386;2023-04-24T07:14:55;10.03;;;5.50;;
8060;SDS011;4073;42.626;25.386;2023-04-24T07:17:20;6.77;;;5.23;;
8060;SDS011;4073;42.626;25.386;2023-04-24T07:19:46;8.27;;;5.27;;
8060;SDS011;4073;42.626;25.386;2023-04-24T07:22:11;10.47;;;5.50;;
8060;SDS011;4073;42.626;25.386;2023-04-24T07:24:42;9.53;;;5.73;;
8060;SDS011;4073;42.626;25.386;2023-04-24T07:27:10;7.80;;;5.70;;
8060;SDS011;4073;42.626;25.386;2023-04-24T07:29:36;9.30;;;5.33;;
8060;SDS011;4073;42.626;25.386;2023-04-24T07:32:01;7.03;;;5.40;;
8060;SDS011;4073;42.626;25.386;2023-04-24T07:34:27;6.43;;;5.13;;
8060;SDS011;4073;42.626;25.386;2023-04-24T07:36:52;8.20;;;5.20;;
8060;SDS011;4073;42.626;25.386;2023-04-24T07:39:18;8.77;;;5.10;;
8060;SDS011;4073;42.626;25.386;2023-04-24T07:41:43;14.43;;;5.57;;
8060;SDS011;4073;42.626;25.386;2023-04-24T07:44:09;9.97;;;4.57;;
8060;SDS011;4073;42.626;25.386;2023-04-24T07:46:35;6.67;;;4.87;;
8060;SDS011;4073;42.626;25.386;2023-04-24T07:49:00;8.60;;;4.33;;
8060;SDS011;4073;42.626;25.386;2023-04-24T07:51:26;10.27;;;5.53;;
8060;SDS011;4073;42.626;25.386;2023-04-24T07:53:52;9.80;;;5.13;;
8060;SDS011;4073;42.626;25.386;2023-04-24T07:56:20;7.13;;;5.37;;
8060;SDS011;4073;42.626;25.386;2023-04-24T07:58:45;7.73;;;5.90;;
8060;SDS011;4073;42.626;25.386;2023-04-24T08:01:11;6.30;;;5.33;;
8060;SDS011;4073;42.626;25.386;2023-04-24T08:03:36;6.20;;;5.00;;
8060;SDS011;4073;42.626;25.386;2023-04-24T08:06:02;5.33;;;4.83;;
8060;SDS011;4073;42.626;25.386;2023-04-24T08:08:27;9.70;;;5.40;;
8060;SDS011;4073;42.626;25.386;2023-04-24T08:10:53;9.97;;;5.40;;
8060;SDS011;4073;42.626;25.386;2023-04-24T08:13:19;6.20;;;4.87;;
8060;SDS011;4073;42.626;25.386;2023-04-24T08:15:45;6.80;;;4.50;;
8060;SDS011;4073;42.626;25.386;2023-04-24T08:18:10;6.83;;;4.90;;
8060;SDS011;4073;42.626;25.386;2023-04-24T08:20:37;6.77;;;4.83;;
8060;SDS011;4073;42.626;25.386;2023-04-24T08:23:03;7.50;;;4.50;;
8060;SDS011;4073;42.626;25.386;2023-04-24T08:25:28;5.30;;;4.63;;
8060;SDS011;4073;42.626;25.386;2023-04-24T08:27:54;8.20;;;4.63;;
8060;SDS011;4073;42.626;25.386;2023-04-24T08:30:20;6.83;;;4.83;;
8060;SDS011;4073;42.626;25.386;2023-04-24T08:32:45;6.40;;;4.70;;
8060;SDS011;4073;42.626;25.386;2023-04-24T08:35:11;5.10;;;4.53;;
8060;SDS011;4073;42.626;25.386;2023-04-24T08:37:37;9.90;;;4.97;;
8060;SDS011;4073;42.626;25.386;2023-04-24T08:40:06;7.50;;;5.67;;
8060;SDS011;4073;42.626;25.386;2023-04-24T08:42:39;6.97;;;4.87;;
8060;SDS011;4073;42.626;25.386;2023-04-24T08:45:07;8.63;;;4.80;;
8060;SDS011;4073;42.626;25.386;2023-04-24T08:47:32;7.30;;;4.47;;
8060;SDS011;4073;42.626;25.386;2023-04-24T08:50:00;6.40;;;4.27;;
8060;SDS011;4073;42.626;25.386;2023-04-24T08:52:27;6.43;;;4.23;;
8060;SDS011;4073;42.626;25.386;2023-04-24T08:54:53;5.37;;;4.27;;
8060;SDS011;4073;42.626;25.386;2023-04-24T08:57:19;6.30;;;4.10;;
8060;SDS011;4073;42.626;25.386;2023-04-24T08:59:45;6.77;;;4.37;;
8060;SDS011;4073;42.626;25.386;2023-04-24T09:02:12;6.87;;;4.57;;
8060;SDS011;4073;42.626;25.386;2023-04-24T09:04:39;6.37;;;4.77;;
8060;SDS011;4073;42.626;25.386;2023-04-24T09:07:06;5.27;;;4.77;;
8060;SDS011;4073;42.626;25.386;2023-04-24T09:09:33;5.10;;;3.67;;
8060;SDS011;4073;42.626;25.386;2023-04-24T09:12:00;5.57;;;5.03;;
8060;SDS011;4073;42.626;25.386;2023-04-24T09:14:26;5.73;;;4.93;;
8060;SDS011;4073;42.626;25.386;2023-04-24T09:16:53;7.50;;;4.60;;
8060;SDS011;4073;42.626;25.386;2023-04-24T09:19:18;6.10;;;3.43;;
8060;SDS011;4073;42.626;25.386;2023-04-24T09:21:45;7.57;;;4.00;;
8060;SDS011;4073;42.626;25.386;2023-04-24T09:24:15;6.00;;;4.07;;
8060;SDS011;4073;42.626;25.386;2023-04-24T09:26:48;5.77;;;4.13;;
8060;SDS011;4073;42.626;25.386;2023-04-24T09:29:20;5.73;;;3.77;;
8060;SDS011;4073;42.626;25.386;2023-04-24T09:31:46;5.87;;;4.43;;
8060;SDS011;4073;42.626;25.386;2023-04-24T09:34:11;9.53;;;5.03;;
8060;SDS011;4073;42.626;25.386;2023-04-24T09:36:38;7.03;;;4.73;;
8060;SDS011;4073;42.626;25.386;2023-04-24T09:39:07;6.97;;;4.67;;
8060;SDS011;4073;42.626;25.386;2023-04-24T09:44:34;5.17;;;4.37;;
8060;SDS011;4073;42.626;25.386;2023-04-24T09:47:00;5.57;;;4.37;;
8060;SDS011;4073;42.626;25.386;2023-04-24T09:51:52;8.40;;;4.50;;
8060;SDS011;4073;42.626;25.386;2023-04-24T09:54:27;6.67;;;4.33;;
8060;SDS011;4073;42.626;25.386;2023-04-24T09:56:54;4.87;;;4.37;;
8060;SDS011;4073;42.626;25.386;2023-04-24T09:59:21;5.00;;;4.50;;
8060;SDS011;4073;42.626;25.386;2023-04-24T10:01:47;8.97;;;5.00;;
8060;SDS011;4073;42.626;25.386;2023-04-24T10:04:24;8.10;;;4.70;;
8060;SDS011;4073;42.626;25.386;2023-04-24T10:06:52;6.03;;;4.57;;
8060;SDS011;4073;42.626;25.386;2023-04-24T10:09:20;6.20;;;4.83;;
8060;SDS011;4073;42.626;25.386;2023-04-24T10:11:48;8.63;;;5.10;;
8060;SDS011;4073;42.626;25.386;2023-04-24T10:14:18;7.90;;;5.20;;
8060;SDS011;4073;42.626;25.386;2023-04-24T10:16:48;5.23;;;4.60;;
8060;SDS011;4073;42.626;25.386;2023-04-24T10:19:15;7.60;;;4.83;;
8060;SDS011;4073;42.626;25.386;2023-04-24T10:21:43;5.33;;;4.77;;
8060;SDS011;4073;42.626;25.386;2023-04-24T10:24:14;10.03;;;5.77;;
8060;SDS011;4073;42.626;25.386;2023-04-24T10:26:41;6.57;;;5.10;;
8060;SDS011;4073;42.626;25.386;2023-04-24T10:29:07;5.90;;;5.40;;
8060;SDS011;4073;42.626;25.386;2023-04-24T10:31:37;8.20;;;4.87;;
8060;SDS011;4073;42.626;25.386;2023-04-24T10:34:04;6.60;;;4.87;;
8060;SDS011;4073;42.626;25.386;2023-04-24T10:36:30;5.33;;;4.33;;
8060;SDS011;4073;42.626;25.386;2023-04-24T10:38:58;7.77;;;4.30;;
8060;SDS011;4073;42.626;25.386;2023-04-24T10:41:26;5.30;;;4.80;;
8060;SDS011;4073;42.626;25.386;2023-04-24T10:44:25;6.67;;;4.73;;
8060;SDS011;4073;42.626;25.386;2023-04-24T10:46:47;6.47;;;5.00;;
8060;SDS011;4073;42.626;25.386;2023-04-24T10:49:19;7.10;;;4.80;;
8060;SDS011;4073;42.626;25.386;2023-04-24T10:51:53;8.20;;;5.60;;
8060;SDS011;4073;42.626;25.386;2023-04-24T10:54:25;6.37;;;5.17;;
8060;SDS011;4073;42.626;25.386;2023-04-24T10:56:51;6.77;;;5.27;;
8060;SDS011;4073;42.626;25.386;2023-04-24T10:59:24;8.47;;;5.30;;
8060;SDS011;4073;42.626;25.386;2023-04-24T11:01:53;5.60;;;5.03;;
8060;SDS011;4073;42.626;25.386;2023-04-24T11:04:29;6.90;;;5.17;;
8060;SDS011;4073;42.626;25.386;2023-04-24T11:06:56;7.97;;;4.70;;
8060;SDS011;4073;42.626;25.386;2023-04-24T11:09:22;6.43;;;4.83;;
8060;SDS011;4073;42.626;25.386;2023-04-24T11:11:47;5.17;;;4.30;;
8060;SDS011;4073;42.626;25.386;2023-04-24T11:14:15;8.67;;;5.37;;
8060;SDS011;4073;42.626;25.386;2023-04-24T11:16:42;6.23;;;5.30;;
8060;SDS011;4073;42.626;25.386;2023-04-24T11:21:47;5.57;;;4.73;;
8060;SDS011;4073;42.626;25.386;2023-04-24T11:26:48;6.10;;;5.50;;
8060;SDS011;4073;42.626;25.386;2023-04-24T11:29:16;7.43;;;5.67;;
8060;SDS011;4073;42.626;25.386;2023-04-24T11:31:44;6.80;;;6.10;;
8060;SDS011;4073;42.626;25.386;2023-04-24T11:34:13;6.43;;;5.40;;
8060;SDS011;4073;42.626;25.386;2023-04-24T11:36:40;6.07;;;5.40;;
8060;SDS011;4073;42.626;25.386;2023-04-24T11:39:09;6.33;;;4.90;;
8060;SDS011;4073;42.626;25.386;2023-04-24T11:41:36;8.73;;;5.33;;
8060;SDS011;4073;42.626;25.386;2023-04-24T11:44:02;6.47;;;5.03;;
8060;SDS011;4073;42.626;25.386;2023-04-24T11:46:29;7.23;;;6.07;;
8060;SDS011;4073;42.626;25.386;2023-04-24T11:48:56;6.57;;;5.50;;
8060;SDS011;4073;42.626;25.386;2023-04-24T11:51:22;7.40;;;6.13;;
8060;SDS011;4073;42.626;25.386;2023-04-24T11:53:50;8.30;;;5.83;;
8060;SDS011;4073;42.626;25.386;2023-04-24T11:56:18;8.87;;;6.30;;
8060;SDS011;4073;42.626;25.386;2023-04-24T11:58:44;7.67;;;5.80;;
8060;SDS011;4073;42.626;25.386;2023-04-24T12:01:10;6.13;;;5.60;;
8060;SDS011;4073;42.626;25.386;2023-04-24T12:03:36;9.37;;;4.93;;
8060;SDS011;4073;42.626;25.386;2023-04-24T12:06:08;6.30;;;5.70;;
8060;SDS011;4073;42.626;25.386;2023-04-24T12:08:34;5.70;;;4.97;;
8060;SDS011;4073;42.626;25.386;2023-04-24T12:11:00;5.97;;;4.97;;
8060;SDS011;4073;42.626;25.386;2023-04-24T12:13:27;5.90;;;5.30;;
8060;SDS011;4073;42.626;25.386;2023-04-24T12:15:52;7.07;;;5.60;;
8060;SDS011;4073;42.626;25.386;2023-04-24T12:18:18;5.80;;;5.17;;
8060;SDS011;4073;42.626;25.386;2023-04-24T12:20:43;8.60;;;5.70;;
8060;SDS011;4073;42.626;25.386;2023-04-24T12:23:09;8.33;;;5.10;;
8060;SDS011;4073;42.626;25.386;2023-04-24T12:25:34;8.03;;;5.50;;
8060;SDS011;4073;42.626;25.386;2023-04-24T12:30:29;5.60;;;5.10;;
8060;SDS011;4073;42.626;25.386;2023-04-24T12:32:56;5.40;;;4.90;;
8060;SDS011;4073;42.626;25.386;2023-04-24T12:35:24;7.17;;;5.63;;
8060;SDS011;4073;42.626;25.386;2023-04-24T12:37:51;5.27;;;4.73;;
8060;SDS011;4073;42.626;25.386;2023-04-24T12:40:17;5.03;;;4.53;;
8060;SDS011;4073;42.626;25.386;2023-04-24T12:42:47;6.67;;;5.83;;
8060;SDS011;4073;42.626;25.386;2023-04-24T12:45:14;6.17;;;5.57;;
8060;SDS011;4073;42.626;25.386;2023-04-24T12:47:41;6.17;;;5.57;;
8060;SDS011;4073;42.626;25.386;2023-04-24T12:50:09;7.57;;;6.00;;
8060;SDS011;4073;42.626;25.386;2023-04-24T12:52:35;7.60;;;5.13;;
8060;SDS011;4073;42.626;25.386;2023-04-24T12:55:01;5.90;;;5.30;;
8060;SDS011;4073;42.626;25.386;2023-04-24T12:57:28;8.20;;;7.40;;
8060;SDS011;4073;42.626;25.386;2023-04-24T12:59:55;7.70;;;5.97;;
8060;SDS011;4073;42.626;25.386;2023-04-24T13:02:22;6.47;;;5.87;;
8060;SDS011;4073;42.626;25.386;2023-04-24T13:04:49;6.80;;;6.20;;
8060;SDS011;4073;42.626;25.386;2023-04-24T13:07:15;8.43;;;5.60;;
8060;SDS011;4073;42.626;25.386;2023-04-24T13:09:42;7.20;;;6.47;;
8060;SDS011;4073;42.626;25.386;2023-04-24T13:12:08;7.50;;;6.03;;
8060;SDS011;4073;42.626;25.386;2023-04-24T13:14:35;8.23;;;6.07;;
8060;SDS011;4073;42.626;25.386;2023-04-24T13:17:01;6.43;;;5.83;;
8060;SDS011;4073;42.626;25.386;2023-04-24T13:19:27;6.43;;;5.47;;
8060;SDS011;4073;42.626;25.386;2023-04-24T13:21:54;7.77;;;7.07;;
8060;SDS011;4073;42.626;25.386;2023-04-24T13:24:21;8.97;;;6.00;;
8060;SDS011;4073;42.626;25.386;2023-04-24T13:26:49;5.53;;;5.03;;
8060;SDS011;4073;42.626;25.386;2023-04-24T13:29:18;5.97;;;5.47;;
8060;SDS011;4073;42.626;25.386;2023-04-24T13:31:45;7.30;;;6.50;;
8060;SDS011;4073;42.626;25.386;2023-04-24T13:34:12;7.83;;;5.90;;
8060;SDS011;4073;42.626;25.386;2023-04-24T13:36:38;7.03;;;5.50;;
8060;SDS011;4073;42.626;25.386;2023-04-24T13:39:04;9.13;;;6.53;;
8060;SDS011;4073;42.626;25.386;2023-04-24T13:41:30;9.77;;;7.20;;
8060;SDS011;4073;42.626;25.386;2023-04-24T13:43:57;12.30;;;8.67;;
8060;SDS011;4073;42.626;25.386;2023-04-24T13:46:22;9.73;;;6.83;;
8060;SDS011;4073;42.626;25.386;2023-04-24T13:48:47;10.30;;;7.00;;
8060;SDS011;4073;42.626;25.386;2023-04-24T13:51:13;7.63;;;6.33;;
8060;SDS011;4073;42.626;25.386;2023-04-24T13:53:38;12.10;;;6.67;;
8060;SDS011;4073;42.626;25.386;2023-04-24T13:56:04;8.60;;;6.67;;
8060;SDS011;4073;42.626;25.386;2023-04-24T13:58:34;7.23;;;5.53;;
8060;SDS011;4073;42.626;25.386;2023-04-24T14:01:02;8.70;;;6.53;;
8060;SDS011;4073;42.626;25.386;2023-04-24T14:03:28;6.97;;;5.33;;
8060;SDS011;4073;42.626;25.386;2023-04-24T14:05:53;9.13;;;5.73;;
8060;SDS011;4073;42.626;25.386;2023-04-24T14:08:19;11.33;;;6.43;;
8060;SDS011;4073;42.626;25.386;2023-04-24T14:10:44;6.53;;;5.93;;
8060;SDS011;4073;42.626;25.386;2023-04-24T14:13:10;5.80;;;5.30;;
8060;SDS011;4073;42.626;25.386;2023-04-24T14:15:36;7.37;;;6.37;;
8060;SDS011;4073;42.626;25.386;2023-04-24T14:18:02;6.97;;;6.23;;
8060;SDS011;4073;42.626;25.386;2023-04-24T14:20:28;8.67;;;6.63;;
8060;SDS011;4073;42.626;25.386;2023-04-24T14:22:54;7.03;;;6.37;;
8060;SDS011;4073;42.626;25.386;2023-04-24T14:25:19;7.83;;;6.33;;
8060;SDS011;4073;42.626;25.386;2023-04-24T14:27:45;8.10;;;6.30;;
8060;SDS011;4073;42.626;25.386;2023-04-24T14:30:12;6.93;;;6.33;;
8060;SDS011;4073;42.626;25.386;2023-04-24T14:32:38;8.87;;;5.93;;
8060;SDS011;4073;42.626;25.386;2023-04-24T14:35:04;6.73;;;6.00;;
8060;SDS011;4073;42.626;25.386;2023-04-24T14:37:30;7.60;;;6.90;;
8060;SDS011;4073;42.626;25.386;2023-04-24T14:39:56;9.10;;;7.97;;
8060;SDS011;4073;42.626;25.386;2023-04-24T14:42:22;7.77;;;6.93;;
8060;SDS011;4073;42.626;25.386;2023-04-24T14:44:47;7.03;;;6.33;;
8060;SDS011;4073;42.626;25.386;2023-04-24T14:47:13;8.73;;;6.33;;
8060;SDS011;4073;42.626;25.386;2023-04-24T14:49:38;9.30;;;8.23;;
8060;SDS011;4073;42.626;25.386;2023-04-24T14:52:04;11.87;;;6.90;;
8060;SDS011;4073;42.626;25.386;2023-04-24T14:54:29;10.40;;;7.33;;
8060;SDS011;4073;42.626;25.386;2023-04-24T14:56:55;10.13;;;5.77;;
8060;SDS011;4073;42.626;25.386;2023-04-24T14:59:26;8.40;;;6.87;;
8060;SDS011;4073;42.626;25.386;2023-04-24T15:01:53;6.30;;;5.80;;
8060;SDS011;4073;42.626;25.386;2023-04-24T15:04:22;8.43;;;7.63;;
8060;SDS011;4073;42.626;25.386;2023-04-24T15:06:51;9.27;;;6.67;;